sensor_id;sensor_type;location;lat;lon;timestamp;P1;durP1;ratioP1;P2;durP2;ratioP2
22973;SDS011;11653;50.848;4.584;2023-08-07T00:01:02;13.20;;;3.47;;
22973;SDS011;11653;50.848;4.584;2023-08-07T00:03:27;13.50;;;3.50;;
22973;SDS011;11653;50.848;4.584;2023-08-07T00:05:53;12.10;;;3.30;;
22973;SDS011;11653;50.848;4.584;2023-08-07T00:08:20;12.57;;;3.23;;
22973;SDS011;11653;50.848;4.584;2023-08-07T00:10:45;11.80;;;3.73;;
22973;SDS011;11653;50.848;4.584;2023-08-07T00:13:13;9.63;;;3.00;;
22973;SDS011;11653;50.848;4.584;2023-08-07T00:15:39;10.67;;;3.43;;
22973;SDS011;11653;50.848;4.584;2023-08-07T00:18:04;14.80;;;3.60;;
22973;SDS011;11653;50.848;4.584;2023-08-07T00:20:30;17.43;;;3.60;;
22973;SDS011;11653;50.848;4.584;2023-08-07T00:22:56;12.23;;;3.43;;
22973;SDS011;11653;50.848;4.584;2023-08-07T00:25:21;12.67;;;3.37;;
22973;SDS011;11653;50.848;4.584;2023-08-07T00:27:47;7.53;;;3.30;;
22973;SDS011;11653;50.848;4.584;2023-08-07T00:30:13;12.00;;;3.20;;
22973;SDS011;11653;50.848;4.584;2023-08-07T00:32:41;13.67;;;3.27;;
22973;SDS011;11653;50.848;4.584;2023-08-07T00:35:07;12.07;;;3.10;;
22973;SDS011;11653;50.848;4.584;2023-08-07T00:37:33;12.57;;;3.40;;
22973;SDS011;11653;50.848;4.584;2023-08-07T00:39:59;11.00;;;2.83;;
22973;SDS011;11653;50.848;4.584;2023-08-07T00:42:25;7.07;;;2.60;;
22973;SDS011;11653;50.848;4.584;2023-08-07T00:44:50;9.37;;;2.90;;
22973;SDS011;11653;50.848;4.584;2023-08-07T00:47:16;12.17;;;3.17;;
22973;SDS011;11653;50.848;4.584;2023-08-07T00:49:42;9.30;;;3.30;;
22973;SDS011;11653;50.848;4.584;2023-08-07T00:52:07;9.03;;;3.40;;
22973;SDS011;11653;50.848;4.584;2023-08-07T00:54:33;10.63;;;2.87;;
22973;SDS011;11653;50.848;4.584;2023-08-07T00:57:00;11.90;;;2.93;;
22973;SDS011;11653;50.848;4.584;2023-08-07T00:59:35;12.27;;;3.50;;
22973;SDS011;11653;50.848;4.584;2023-08-07T01:02:01;10.47;;;2.57;;
22973;SDS011;11653;50.848;4.584;2023-08-07T01:04:27;15.50;;;3.33;;
22973;SDS011;11653;50.848;4.584;2023-08-07T01:06:53;9.47;;;2.73;;
22973;SDS011;11653;50.848;4.584;2023-08-07T01:09:19;8.23;;;2.70;;
22973;SDS011;11653;50.848;4.584;2023-08-07T01:11:48;4.80;;;2.40;;
22973;SDS011;11653;50.848;4.584;2023-08-07T01:16:58;8.80;;;2.80;;
22973;SDS011;11653;50.848;4.584;2023-08-07T01:19:30;8.20;;;2.90;;
22973;SDS011;11653;50.848;4.584;2023-08-07T01:22:09;13.20;;;3.27;;
22973;SDS011;11653;50.848;4.584;2023-08-07T01:24:36;12.57;;;2.80;;
22973;SDS011;11653;50.848;4.584;2023-08-07T01:29:36;11.70;;;3.37;;
22973;SDS011;11653;50.848;4.584;2023-08-07T01:32:23;10.77;;;3.23;;
22973;SDS011;11653;50.848;4.584;2023-08-07T01:34:56;11.03;;;2.60;;
22973;SDS011;11653;50.848;4.584;2023-08-07T01:37:23;8.43;;;3.77;;
22973;SDS011;11653;50.848;4.584;2023-08-07T01:39:50;7.97;;;2.80;;
22973;SDS011;11653;50.848;4.584;2023-08-07T01:42:17;14.87;;;3.80;;
22973;SDS011;11653;50.848;4.584;2023-08-07T01:44:43;7.80;;;2.90;;
22973;SDS011;11653;50.848;4.584;2023-08-07T01:47:09;10.20;;;2.93;;
22973;SDS011;11653;50.848;4.584;2023-08-07T01:49:34;12.80;;;3.00;;
22973;SDS011;11653;50.848;4.584;2023-08-07T01:52:01;8.73;;;2.57;;
22973;SDS011;11653;50.848;4.584;2023-08-07T01:54:26;8.17;;;3.03;;
22973;SDS011;11653;50.848;4.584;2023-08-07T01:56:52;8.77;;;2.90;;
22973;SDS011;11653;50.848;4.584;2023-08-07T01:59:18;7.73;;;2.80;;
22973;SDS011;11653;50.848;4.584;2023-08-07T02:01:43;9.47;;;2.77;;
22973;SDS011;11653;50.848;4.584;2023-08-07T02:04:09;10.40;;;2.90;;
22973;SDS011;11653;50.848;4.584;2023-08-07T02:06:35;7.40;;;2.60;;
22973;SDS011;11653;50.848;4.584;2023-08-07T02:09:00;12.33;;;2.70;;
22973;SDS011;11653;50.848;4.584;2023-08-07T02:11:26;6.47;;;2.63;;
22973;SDS011;11653;50.848;4.584;2023-08-07T02:13:52;8.50;;;2.60;;
22973;SDS011;11653;50.848;4.584;2023-08-07T02:16:17;10.23;;;3.63;;
22973;SDS011;11653;50.848;4.584;2023-08-07T02:18:43;7.07;;;2.90;;
22973;SDS011;11653;50.848;4.584;2023-08-07T02:21:08;8.30;;;2.80;;
22973;SDS011;11653;50.848;4.584;2023-08-07T02:23:34;7.17;;;2.67;;
22973;SDS011;11653;50.848;4.584;2023-08-07T02:26:00;9.80;;;2.70;;
22973;SDS011;11653;50.848;4.584;2023-08-07T02:28:25;9.23;;;2.77;;
22973;SDS011;11653;50.848;4.584;2023-08-07T02:30:51;7.30;;;2.60;;
22973;SDS011;11653;50.848;4.584;2023-08-07T02:33:18;9.27;;;2.70;;
22973;SDS011;11653;50.848;4.584;2023-08-07T02:35:44;10.23;;;3.07;;
22973;SDS011;11653;50.848;4.584;2023-08-07T02:38:10;7.90;;;2.80;;
22973;SDS011;11653;50.848;4.584;2023-08-07T02:40:37;5.57;;;2.40;;
22973;SDS011;11653;50.848;4.584;2023-08-07T02:43:03;7.23;;;2.50;;
22973;SDS011;11653;50.848;4.584;2023-08-07T02:45:28;6.80;;;2.70;;
22973;SDS011;11653;50.848;4.584;2023-08-07T02:47:54;5.50;;;2.43;;
22973;SDS011;11653;50.848;4.584;2023-08-07T02:50:20;8.13;;;2.70;;
22973;SDS011;11653;50.848;4.584;2023-08-07T02:52:45;8.33;;;2.53;;
22973;SDS011;11653;50.848;4.584;2023-08-07T02:55:11;13.60;;;2.93;;
22973;SDS011;11653;50.848;4.584;2023-08-07T02:57:36;9.63;;;2.37;;
22973;SDS011;11653;50.848;4.584;2023-08-07T03:00:02;6.33;;;2.53;;
22973;SDS011;11653;50.848;4.584;2023-08-07T03:02:28;11.93;;;3.07;;
22973;SDS011;11653;50.848;4.584;2023-08-07T03:04:54;7.57;;;3.00;;
22973;SDS011;11653;50.848;4.584;2023-08-07T03:07:19;6.73;;;2.43;;
22973;SDS011;11653;50.848;4.584;2023-08-07T03:09:45;6.83;;;2.30;;
22973;SDS011;11653;50.848;4.584;2023-08-07T03:12:12;9.87;;;2.63;;
22973;SDS011;11653;50.848;4.584;2023-08-07T03:14:38;12.07;;;2.33;;
22973;SDS011;11653;50.848;4.584;2023-08-07T03:17:03;9.00;;;2.77;;
22973;SDS011;11653;50.848;4.584;2023-08-07T03:19:29;5.97;;;2.27;;
22973;SDS011;11653;50.848;4.584;2023-08-07T03:21:55;8.13;;;2.93;;
22973;SDS011;11653;50.848;4.584;2023-08-07T03:24:20;7.90;;;2.73;;
22973;SDS011;11653;50.848;4.584;2023-08-07T03:26:46;6.13;;;2.60;;
22973;SDS011;11653;50.848;4.584;2023-08-07T03:29:14;5.83;;;2.20;;
22973;SDS011;11653;50.848;4.584;2023-08-07T03:31:39;8.43;;;2.10;;
22973;SDS011;11653;50.848;4.584;2023-08-07T03:34:05;7.60;;;2.77;;
22973;SDS011;11653;50.848;4.584;2023-08-07T03:36:31;9.43;;;2.97;;
22973;SDS011;11653;50.848;4.584;2023-08-07T03:38:56;8.13;;;2.60;;
22973;SDS011;11653;50.848;4.584;2023-08-07T03:41:22;8.53;;;2.70;;
22973;SDS011;11653;50.848;4.584;2023-08-07T03:43:48;7.07;;;2.70;;
22973;SDS011;11653;50.848;4.584;2023-08-07T03:46:13;6.13;;;2.60;;
22973;SDS011;11653;50.848;4.584;2023-08-07T03:48:39;5.67;;;2.53;;
22973;SDS011;11653;50.848;4.584;2023-08-07T03:51:05;7.67;;;2.57;;
22973;SDS011;11653;50.848;4.584;2023-08-07T03:53:33;7.07;;;2.20;;
22973;SDS011;11653;50.848;4.584;2023-08-07T03:55:59;8.23;;;2.50;;
22973;SDS011;11653;50.848;4.584;2023-08-07T03:58:25;7.33;;;2.53;;
22973;SDS011;11653;50.848;4.584;2023-08-07T04:00:51;10.27;;;2.73;;
22973;SDS011;11653;50.848;4.584;2023-08-07T04:03:17;5.13;;;2.90;;
22973;SDS011;11653;50.848;4.584;2023-08-07T04:05:44;9.17;;;2.70;;
22973;SDS011;11653;50.848;4.584;2023-08-07T04:08:09;4.57;;;2.57;;
22973;SDS011;11653;50.848;4.584;2023-08-07T04:10:35;7.00;;;2.77;;
22973;SDS011;11653;50.848;4.584;2023-08-07T04:13:00;9.33;;;2.80;;
22973;SDS011;11653;50.848;4.584;2023-08-07T04:15:26;11.10;;;2.80;;
22973;SDS011;11653;50.848;4.584;2023-08-07T04:17:52;6.63;;;2.73;;
22973;SDS011;11653;50.848;4.584;2023-08-07T04:20:17;10.30;;;3.03;;
22973;SDS011;11653;50.848;4.584;2023-08-07T04:22:45;9.33;;;2.90;;
22973;SDS011;11653;50.848;4.584;2023-08-07T04:25:11;7.83;;;2.77;;
22973;SDS011;11653;50.848;4.584;2023-08-07T04:27:37;7.17;;;2.97;;
22973;SDS011;11653;50.848;4.584;2023-08-07T04:30:03;8.93;;;2.70;;
22973;SDS011;11653;50.848;4.584;2023-08-07T04:32:30;6.47;;;2.80;;
22973;SDS011;11653;50.848;4.584;2023-08-07T04:34:56;6.27;;;3.23;;
22973;SDS011;11653;50.848;4.584;2023-08-07T04:37:21;11.87;;;3.30;;
22973;SDS011;11653;50.848;4.584;2023-08-07T04:39:47;6.53;;;2.40;;
22973;SDS011;11653;50.848;4.584;2023-08-07T04:42:13;10.47;;;3.37;;
22973;SDS011;11653;50.848;4.584;2023-08-07T04:44:38;7.23;;;2.30;;
22973;SDS011;11653;50.848;4.584;2023-08-07T04:47:04;8.83;;;2.77;;
22973;SDS011;11653;50.848;4.584;2023-08-07T04:49:30;7.77;;;2.67;;
22973;SDS011;11653;50.848;4.584;2023-08-07T04:51:56;7.10;;;2.57;;
22973;SDS011;11653;50.848;4.584;2023-08-07T04:54:21;8.43;;;3.00;;
22973;SDS011;11653;50.848;4.584;2023-08-07T04:56:47;10.93;;;2.80;;
22973;SDS011;11653;50.848;4.584;2023-08-07T04:59:13;8.43;;;2.87;;
22973;SDS011;11653;50.848;4.584;2023-08-07T05:01:39;7.07;;;2.60;;
22973;SDS011;11653;50.848;4.584;2023-08-07T05:04:04;12.13;;;2.80;;
22973;SDS011;11653;50.848;4.584;2023-08-07T05:06:30;9.97;;;2.90;;
22973;SDS011;11653;50.848;4.584;2023-08-07T05:08:56;8.73;;;3.07;;
22973;SDS011;11653;50.848;4.584;2023-08-07T05:11:22;10.80;;;3.13;;
22973;SDS011;11653;50.848;4.584;2023-08-07T05:13:47;9.87;;;2.63;;
22973;SDS011;11653;50.848;4.584;2023-08-07T05:16:13;9.17;;;2.60;;
22973;SDS011;11653;50.848;4.584;2023-08-07T05:18:39;8.93;;;3.00;;
22973;SDS011;11653;50.848;4.584;2023-08-07T05:21:04;9.33;;;3.10;;
22973;SDS011;11653;50.848;4.584;2023-08-07T05:23:32;7.03;;;2.60;;
22973;SDS011;11653;50.848;4.584;2023-08-07T05:25:57;4.73;;;2.30;;
22973;SDS011;11653;50.848;4.584;2023-08-07T05:28:23;5.80;;;2.50;;
22973;SDS011;11653;50.848;4.584;2023-08-07T05:30:49;11.47;;;2.57;;
22973;SDS011;11653;50.848;4.584;2023-08-07T05:33:14;9.17;;;3.00;;
22973;SDS011;11653;50.848;4.584;2023-08-07T05:35:40;4.17;;;2.20;;
22973;SDS011;11653;50.848;4.584;2023-08-07T05:38:06;7.10;;;2.57;;
22973;SDS011;11653;50.848;4.584;2023-08-07T05:40:31;5.30;;;2.10;;
22973;SDS011;11653;50.848;4.584;2023-08-07T05:42:59;12.43;;;2.47;;
22973;SDS011;11653;50.848;4.584;2023-08-07T05:45:24;6.50;;;2.37;;
22973;SDS011;11653;50.848;4.584;2023-08-07T05:47:50;6.87;;;2.37;;
22973;SDS011;11653;50.848;4.584;2023-08-07T05:50:16;5.73;;;2.10;;
22973;SDS011;11653;50.848;4.584;2023-08-07T05:52:41;5.60;;;2.27;;
22973;SDS011;11653;50.848;4.584;2023-08-07T05:55:07;9.27;;;2.40;;
22973;SDS011;11653;50.848;4.584;2023-08-07T05:57:33;6.80;;;2.30;;
22973;SDS011;11653;50.848;4.584;2023-08-07T05:59:59;6.37;;;1.97;;
22973;SDS011;11653;50.848;4.584;2023-08-07T06:02:24;6.37;;;2.47;;
22973;SDS011;11653;50.848;4.584;2023-08-07T06:04:50;7.53;;;1.87;;
22973;SDS011;11653;50.848;4.584;2023-08-07T06:07:16;3.83;;;2.10;;
22973;SDS011;11653;50.848;4.584;2023-08-07T06:09:41;6.23;;;1.63;;
22973;SDS011;11653;50.848;4.584;2023-08-07T06:12:07;8.87;;;2.40;;
22973;SDS011;11653;50.848;4.584;2023-08-07T06:14:33;7.00;;;2.13;;
22973;SDS011;11653;50.848;4.584;2023-08-07T06:16:59;7.07;;;2.30;;
22973;SDS011;11653;50.848;4.584;2023-08-07T06:19:26;6.53;;;2.03;;
22973;SDS011;11653;50.848;4.584;2023-08-07T06:21:52;7.10;;;2.70;;
22973;SDS011;11653;50.848;4.584;2023-08-07T06:24:19;7.77;;;2.03;;
22973;SDS011;11653;50.848;4.584;2023-08-07T06:26:44;7.03;;;1.90;;
22973;SDS011;11653;50.848;4.584;2023-08-07T06:29:10;11.37;;;2.93;;
22973;SDS011;11653;50.848;4.584;2023-08-07T06:31:36;6.23;;;2.30;;
22973;SDS011;11653;50.848;4.584;2023-08-07T06:34:01;6.77;;;2.23;;
22973;SDS011;11653;50.848;4.584;2023-08-07T06:36:27;8.43;;;2.40;;
22973;SDS011;11653;50.848;4.584;2023-08-07T06:38:53;5.37;;;2.30;;
22973;SDS011;11653;50.848;4.584;2023-08-07T06:41:19;11.47;;;2.20;;
22973;SDS011;11653;50.848;4.584;2023-08-07T06:43:45;5.37;;;2.10;;
22973;SDS011;11653;50.848;4.584;2023-08-07T06:46:11;7.70;;;2.07;;
22973;SDS011;11653;50.848;4.584;2023-08-07T06:48:36;6.37;;;2.13;;
22973;SDS011;11653;50.848;4.584;2023-08-07T06:51:02;6.83;;;2.20;;
22973;SDS011;11653;50.848;4.584;2023-08-07T06:53:27;7.23;;;2.20;;
22973;SDS011;11653;50.848;4.584;2023-08-07T06:55:53;7.73;;;2.10;;
22973;SDS011;11653;50.848;4.584;2023-08-07T06:58:19;10.53;;;2.30;;
22973;SDS011;11653;50.848;4.584;2023-08-07T07:00:45;4.90;;;2.33;;
22973;SDS011;11653;50.848;4.584;2023-08-07T07:03:11;5.40;;;2.30;;
22973;SDS011;11653;50.848;4.584;2023-08-07T07:05:36;8.03;;;2.47;;
22973;SDS011;11653;50.848;4.584;2023-08-07T07:08:02;6.47;;;2.13;;
22973;SDS011;11653;50.848;4.584;2023-08-07T07:10:28;5.33;;;2.10;;
22973;SDS011;11653;50.848;4.584;2023-08-07T07:12:54;5.90;;;2.40;;
22973;SDS011;11653;50.848;4.584;2023-08-07T07:15:20;4.97;;;2.03;;
22973;SDS011;11653;50.848;4.584;2023-08-07T07:17:45;6.90;;;2.20;;
22973;SDS011;11653;50.848;4.584;2023-08-07T07:20:11;6.47;;;1.90;;
22973;SDS011;11653;50.848;4.584;2023-08-07T07:22:37;4.63;;;2.10;;
22973;SDS011;11653;50.848;4.584;2023-08-07T07:25:03;6.57;;;2.20;;
22973;SDS011;11653;50.848;4.584;2023-08-07T07:27:29;6.60;;;2.47;;
22973;SDS011;11653;50.848;4.584;2023-08-07T07:29:55;6.17;;;1.70;;
22973;SDS011;11653;50.848;4.584;2023-08-07T07:32:21;7.50;;;2.50;;
22973;SDS011;11653;50.848;4.584;2023-08-07T07:34:46;6.50;;;2.00;;
22973;SDS011;11653;50.848;4.584;2023-08-07T07:37:13;6.93;;;2.40;;
22973;SDS011;11653;50.848;4.584;2023-08-07T07:39:39;4.50;;;1.90;;
22973;SDS011;11653;50.848;4.584;2023-08-07T07:42:06;6.20;;;1.87;;
22973;SDS011;11653;50.848;4.584;2023-08-07T07:44:32;4.33;;;2.00;;
22973;SDS011;11653;50.848;4.584;2023-08-07T07:47:00;4.90;;;2.10;;
22973;SDS011;11653;50.848;4.584;2023-08-07T07:49:26;8.40;;;1.90;;
22973;SDS011;11653;50.848;4.584;2023-08-07T07:51:51;5.13;;;1.70;;
22973;SDS011;11653;50.848;4.584;2023-08-07T07:54:17;8.33;;;2.00;;
22973;SDS011;11653;50.848;4.584;2023-08-07T07:56:42;4.43;;;1.77;;
22973;SDS011;11653;50.848;4.584;2023-08-07T07:59:08;4.07;;;1.87;;
22973;SDS011;11653;50.848;4.584;2023-08-07T08:01:34;5.80;;;2.00;;
22973;SDS011;11653;50.848;4.584;2023-08-07T08:04:00;7.07;;;2.17;;
22973;SDS011;11653;50.848;4.584;2023-08-07T08:06:25;6.13;;;2.07;;
22973;SDS011;11653;50.848;4.584;2023-08-07T08:08:51;8.37;;;2.13;;
22973;SDS011;11653;50.848;4.584;2023-08-07T08:11:17;5.63;;;1.70;;
22973;SDS011;11653;50.848;4.584;2023-08-07T08:13:42;11.67;;;2.67;;
22973;SDS011;11653;50.848;4.584;2023-08-07T08:16:08;6.37;;;1.93;;
22973;SDS011;11653;50.848;4.584;2023-08-07T08:18:34;5.90;;;2.00;;
22973;SDS011;11653;50.848;4.584;2023-08-07T08:20:59;7.47;;;2.10;;
22973;SDS011;11653;50.848;4.584;2023-08-07T08:23:25;5.13;;;1.80;;
22973;SDS011;11653;50.848;4.584;2023-08-07T08:25:50;3.07;;;1.50;;
22973;SDS011;11653;50.848;4.584;2023-08-07T08:28:16;6.57;;;1.97;;
22973;SDS011;11653;50.848;4.584;2023-08-07T08:30:42;4.57;;;1.90;;
22973;SDS011;11653;50.848;4.584;2023-08-07T08:33:08;6.60;;;1.90;;
22973;SDS011;11653;50.848;4.584;2023-08-07T08:35:37;4.17;;;1.83;;
22973;SDS011;11653;50.848;4.584;2023-08-07T08:38:03;3.83;;;1.73;;
22973;SDS011;11653;50.848;4.584;2023-08-07T08:40:29;6.83;;;1.80;;
22973;SDS011;11653;50.848;4.584;2023-08-07T08:42:59;4.73;;;1.67;;
22973;SDS011;11653;50.848;4.584;2023-08-07T08:45:26;6.17;;;1.93;;
22973;SDS011;11653;50.848;4.584;2023-08-07T08:48:00;3.33;;;1.73;;
22973;SDS011;11653;50.848;4.584;2023-08-07T08:50:27;4.07;;;1.70;;
22973;SDS011;11653;50.848;4.584;2023-08-07T08:52:53;5.23;;;2.00;;
22973;SDS011;11653;50.848;4.584;2023-08-07T08:55:21;3.57;;;1.57;;
22973;SDS011;11653;50.848;4.584;2023-08-07T08:57:48;6.33;;;1.90;;
22973;SDS011;11653;50.848;4.584;2023-08-07T09:00:15;3.70;;;1.60;;
22973;SDS011;11653;50.848;4.584;2023-08-07T09:02:46;5.20;;;1.87;;
22973;SDS011;11653;50.848;4.584;2023-08-07T09:05:14;4.63;;;1.77;;
22973;SDS011;11653;50.848;4.584;2023-08-07T09:07:40;4.10;;;2.10;;
22973;SDS011;11653;50.848;4.584;2023-08-07T09:10:07;5.07;;;1.70;;
22973;SDS011;11653;50.848;4.584;2023-08-07T09:12:34;4.07;;;1.60;;
22973;SDS011;11653;50.848;4.584;2023-08-07T09:15:04;5.73;;;1.83;;
22973;SDS011;11653;50.848;4.584;2023-08-07T09:17:33;5.87;;;2.30;;
22973;SDS011;11653;50.848;4.584;2023-08-07T09:20:03;6.67;;;2.27;;
22973;SDS011;11653;50.848;4.584;2023-08-07T09:22:31;7.53;;;2.00;;
22973;SDS011;11653;50.848;4.584;2023-08-07T09:24:57;2.73;;;1.83;;
22973;SDS011;11653;50.848;4.584;2023-08-07T09:27:25;5.83;;;2.53;;
22973;SDS011;11653;50.848;4.584;2023-08-07T09:29:51;4.13;;;1.83;;
22973;SDS011;11653;50.848;4.584;2023-08-07T09:32:19;8.73;;;2.13;;
22973;SDS011;11653;50.848;4.584;2023-08-07T09:34:47;7.17;;;1.70;;
22973;SDS011;11653;50.848;4.584;2023-08-07T09:37:14;8.13;;;2.03;;
22973;SDS011;11653;50.848;4.584;2023-08-07T09:39:40;3.70;;;1.80;;
22973;SDS011;11653;50.848;4.584;2023-08-07T09:42:15;5.00;;;1.63;;
22973;SDS011;11653;50.848;4.584;2023-08-07T09:44:41;3.67;;;1.70;;
22973;SDS011;11653;50.848;4.584;2023-08-07T09:47:17;3.03;;;1.83;;
22973;SDS011;11653;50.848;4.584;2023-08-07T09:49:44;3.30;;;1.60;;
22973;SDS011;11653;50.848;4.584;2023-08-07T09:52:11;3.03;;;1.40;;
22973;SDS011;11653;50.848;4.584;2023-08-07T09:54:40;3.43;;;2.17;;
22973;SDS011;11653;50.848;4.584;2023-08-07T09:57:06;3.07;;;1.70;;
22973;SDS011;11653;50.848;4.584;2023-08-07T09:59:32;4.63;;;1.80;;
22973;SDS011;11653;50.848;4.584;2023-08-07T10:02:00;5.47;;;2.03;;
22973;SDS011;11653;50.848;4.584;2023-08-07T10:04:29;4.20;;;1.30;;
22973;SDS011;11653;50.848;4.584;2023-08-07T10:06:56;2.33;;;1.80;;
22973;SDS011;11653;50.848;4.584;2023-08-07T10:09:22;3.63;;;1.67;;
22973;SDS011;11653;50.848;4.584;2023-08-07T10:11:48;6.27;;;1.50;;
22973;SDS011;11653;50.848;4.584;2023-08-07T10:14:15;3.57;;;1.50;;
22973;SDS011;11653;50.848;4.584;2023-08-07T10:16:41;2.70;;;1.40;;
22973;SDS011;11653;50.848;4.584;2023-08-07T10:19:09;2.20;;;1.30;;
22973;SDS011;11653;50.848;4.584;2023-08-07T10:21:36;3.23;;;1.87;;
22973;SDS011;11653;50.848;4.584;2023-08-07T10:24:04;4.30;;;2.20;;
22973;SDS011;11653;50.848;4.584;2023-08-07T10:26:33;4.50;;;1.73;;
22973;SDS011;11653;50.848;4.584;2023-08-07T10:29:02;1.83;;;1.30;;
22973;SDS011;11653;50.848;4.584;2023-08-07T10:31:33;3.00;;;1.67;;
22973;SDS011;11653;50.848;4.584;2023-08-07T10:34:01;5.40;;;1.70;;
22973;SDS011;11653;50.848;4.584;2023-08-07T10:36:33;7.10;;;1.60;;
22973;SDS011;11653;50.848;4.584;2023-08-07T10:39:10;3.83;;;1.70;;
22973;SDS011;11653;50.848;4.584;2023-08-07T10:41:40;3.90;;;1.50;;
22973;SDS011;11653;50.848;4.584;2023-08-07T10:44:17;2.83;;;1.30;;
22973;SDS011;11653;50.848;4.584;2023-08-07T10:46:51;3.20;;;1.67;;
22973;SDS011;11653;50.848;4.584;2023-08-07T10:52:13;3.00;;;1.23;;
22973;SDS011;11653;50.848;4.584;2023-08-07T10:54:41;2.90;;;1.20;;
22973;SDS011;11653;50.848;4.584;2023-08-07T10:57:11;3.60;;;1.50;;
22973;SDS011;11653;50.848;4.584;2023-08-07T10:59:38;4.40;;;1.30;;
22973;SDS011;11653;50.848;4.584;2023-08-07T11:02:24;2.33;;;1.20;;
22973;SDS011;11653;50.848;4.584;2023-08-07T11:04:51;3.07;;;1.20;;
22973;SDS011;11653;50.848;4.584;2023-08-07T11:07:28;4.00;;;1.33;;
22973;SDS011;11653;50.848;4.584;2023-08-07T11:09:54;2.23;;;1.40;;
22973;SDS011;11653;50.848;4.584;2023-08-07T11:12:24;3.67;;;1.60;;
22973;SDS011;11653;50.848;4.584;2023-08-07T11:14:50;5.53;;;1.60;;
22973;SDS011;11653;50.848;4.584;2023-08-07T11:17:17;2.80;;;1.53;;
22973;SDS011;11653;50.848;4.584;2023-08-07T11:19:43;4.17;;;1.60;;
22973;SDS011;11653;50.848;4.584;2023-08-07T11:22:12;3.33;;;1.40;;
22973;SDS011;11653;50.848;4.584;2023-08-07T11:24:40;3.07;;;1.30;;
22973;SDS011;11653;50.848;4.584;2023-08-07T11:27:07;3.73;;;1.47;;
22973;SDS011;11653;50.848;4.584;2023-08-07T11:29:33;4.80;;;1.60;;
22973;SDS011;11653;50.848;4.584;2023-08-07T11:31:59;3.67;;;1.45;;
22973;SDS011;11653;50.848;4.584;2023-08-07T11:34:24;2.70;;;1.57;;
22973;SDS011;11653;50.848;4.584;2023-08-07T11:36:50;3.53;;;1.30;;
22973;SDS011;11653;50.848;4.584;2023-08-07T11:39:16;1.73;;;1.20;;
22973;SDS011;11653;50.848;4.584;2023-08-07T11:41:44;3.27;;;1.40;;
22973;SDS011;11653;50.848;4.584;2023-08-07T11:44:10;2.50;;;1.40;;
22973;SDS011;11653;50.848;4.584;2023-08-07T11:46:36;4.00;;;1.57;;
22973;SDS011;11653;50.848;4.584;2023-08-07T11:49:02;3.10;;;1.37;;
22973;SDS011;11653;50.848;4.584;2023-08-07T11:51:31;2.20;;;1.30;;
22973;SDS011;11653;50.848;4.584;2023-08-07T11:53:57;5.73;;;1.80;;
22973;SDS011;11653;50.848;4.584;2023-08-07T11:56:24;2.00;;;1.37;;
22973;SDS011;11653;50.848;4.584;2023-08-07T11:58:51;3.10;;;1.50;;
22973;SDS011;11653;50.848;4.584;2023-08-07T12:01:18;2.63;;;1.13;;
22973;SDS011;11653;50.848;4.584;2023-08-07T12:06:22;1.67;;;1.23;;
22973;SDS011;11653;50.848;4.584;2023-08-07T12:08:49;2.50;;;1.53;;
22973;SDS011;11653;50.848;4.584;2023-08-07T12:11:19;3.03;;;1.20;;
22973;SDS011;11653;50.848;4.584;2023-08-07T12:13:46;2.03;;;1.20;;
22973;SDS011;11653;50.848;4.584;2023-08-07T12:16:13;4.67;;;1.20;;
22973;SDS011;11653;50.848;4.584;2023-08-07T12:18:47;5.90;;;1.33;;
22973;SDS011;11653;50.848;4.584;2023-08-07T12:21:14;1.77;;;1.13;;
22973;SDS011;11653;50.848;4.584;2023-08-07T12:23:43;1.90;;;1.30;;
22973;SDS011;11653;50.848;4.584;2023-08-07T12:26:09;1.63;;;1.20;;
22973;SDS011;11653;50.848;4.584;2023-08-07T12:28:35;3.03;;;1.50;;
22973;SDS011;11653;50.848;4.584;2023-08-07T12:31:01;2.23;;;1.33;;
22973;SDS011;11653;50.848;4.584;2023-08-07T12:33:30;3.87;;;1.40;;
22973;SDS011;11653;50.848;4.584;2023-08-07T12:35:57;2.60;;;1.53;;
22973;SDS011;11653;50.848;4.584;2023-08-07T12:38:23;3.57;;;1.50;;
22973;SDS011;11653;50.848;4.584;2023-08-07T12:40:49;2.97;;;1.50;;
22973;SDS011;11653;50.848;4.584;2023-08-07T12:43:15;6.17;;;1.70;;
22973;SDS011;11653;50.848;4.584;2023-08-07T12:45:40;3.70;;;1.50;;
22973;SDS011;11653;50.848;4.584;2023-08-07T12:48:06;3.20;;;1.60;;
22973;SDS011;11653;50.848;4.584;2023-08-07T12:50:32;3.73;;;1.30;;
22973;SDS011;11653;50.848;4.584;2023-08-07T12:52:58;1.70;;;0.90;;
22973;SDS011;11653;50.848;4.584;2023-08-07T12:55:23;1.60;;;1.40;;
22973;SDS011;11653;50.848;4.584;2023-08-07T12:57:49;4.37;;;1.57;;
22973;SDS011;11653;50.848;4.584;2023-08-07T13:00:17;3.33;;;1.57;;
22973;SDS011;11653;50.848;4.584;2023-08-07T13:02:47;2.27;;;1.47;;
22973;SDS011;11653;50.848;4.584;2023-08-07T13:05:14;2.40;;;1.50;;
22973;SDS011;11653;50.848;4.584;2023-08-07T13:07:42;2.43;;;1.40;;
22973;SDS011;11653;50.848;4.584;2023-08-07T13:10:08;1.77;;;1.10;;
22973;SDS011;11653;50.848;4.584;2023-08-07T13:12:35;4.07;;;1.33;;
22973;SDS011;11653;50.848;4.584;2023-08-07T13:15:02;5.93;;;1.47;;
22973;SDS011;11653;50.848;4.584;2023-08-07T13:17:30;1.77;;;1.30;;
22973;SDS011;11653;50.848;4.584;2023-08-07T13:19:57;4.33;;;1.17;;
22973;SDS011;11653;50.848;4.584;2023-08-07T13:22:23;2.47;;;1.20;;
22973;SDS011;11653;50.848;4.584;2023-08-07T13:24:48;2.33;;;1.13;;
22973;SDS011;11653;50.848;4.584;2023-08-07T13:27:14;4.33;;;1.40;;
22973;SDS011;11653;50.848;4.584;2023-08-07T13:29:40;1.33;;;1.00;;
22973;SDS011;11653;50.848;4.584;2023-08-07T13:32:05;1.73;;;1.10;;
22973;SDS011;11653;50.848;4.584;2023-08-07T13:34:37;2.73;;;1.30;;
22973;SDS011;11653;50.848;4.584;2023-08-07T13:37:06;2.60;;;1.23;;
22973;SDS011;11653;50.848;4.584;2023-08-07T13:39:32;2.60;;;1.23;;
22973;SDS011;11653;50.848;4.584;2023-08-07T13:41:58;2.27;;;1.60;;
22973;SDS011;11653;50.848;4.584;2023-08-07T13:44:25;2.80;;;1.10;;
22973;SDS011;11653;50.848;4.584;2023-08-07T13:46:51;4.57;;;1.50;;
22973;SDS011;11653;50.848;4.584;2023-08-07T13:49:17;1.97;;;1.00;;
22973;SDS011;11653;50.848;4.584;2023-08-07T13:51:42;1.53;;;0.80;;
22973;SDS011;11653;50.848;4.584;2023-08-07T13:54:08;2.10;;;1.10;;
22973;SDS011;11653;50.848;4.584;2023-08-07T13:56:34;2.27;;;0.93;;
22973;SDS011;11653;50.848;4.584;2023-08-07T13:59:00;1.30;;;0.90;;
22973;SDS011;11653;50.848;4.584;2023-08-07T14:01:26;2.67;;;1.00;;
22973;SDS011;11653;50.848;4.584;2023-08-07T14:03:53;2.17;;;0.87;;
22973;SDS011;11653;50.848;4.584;2023-08-07T14:06:19;3.27;;;0.80;;
22973;SDS011;11653;50.848;4.584;2023-08-07T14:08:45;0.60;;;0.53;;
22973;SDS011;11653;50.848;4.584;2023-08-07T14:11:10;1.20;;;0.60;;
22973;SDS011;11653;50.848;4.584;2023-08-07T14:13:38;3.17;;;1.07;;
22973;SDS011;11653;50.848;4.584;2023-08-07T14:16:04;2.77;;;0.87;;
22973;SDS011;11653;50.848;4.584;2023-08-07T14:18:30;1.47;;;0.80;;
22973;SDS011;11653;50.848;4.584;2023-08-07T14:20:55;1.23;;;1.00;;
22973;SDS011;11653;50.848;4.584;2023-08-07T14:23:21;1.57;;;1.00;;
22973;SDS011;11653;50.848;4.584;2023-08-07T14:25:47;1.13;;;0.93;;
22973;SDS011;11653;50.848;4.584;2023-08-07T14:28:15;3.07;;;0.87;;
22973;SDS011;11653;50.848;4.584;2023-08-07T14:30:41;1.27;;;0.73;;
22973;SDS011;11653;50.848;4.584;2023-08-07T14:33:07;3.23;;;1.10;;
22973;SDS011;11653;50.848;4.584;2023-08-07T14:35:33;1.63;;;0.73;;
22973;SDS011;11653;50.848;4.584;2023-08-07T14:37:58;1.97;;;0.77;;
22973;SDS011;11653;50.848;4.584;2023-08-07T14:40:24;1.40;;;1.00;;
22973;SDS011;11653;50.848;4.584;2023-08-07T14:42:50;2.27;;;0.70;;
22973;SDS011;11653;50.848;4.584;2023-08-07T14:45:15;2.27;;;0.87;;
22973;SDS011;11653;50.848;4.584;2023-08-07T14:47:42;2.43;;;0.73;;
22973;SDS011;11653;50.848;4.584;2023-08-07T14:50:08;4.53;;;0.90;;
22973;SDS011;11653;50.848;4.584;2023-08-07T14:52:35;2.37;;;0.90;;